createdAt,value
2023-03-22T00:00:30.278Z,11.20
2023-03-22T00:04:34.456Z,11.20
2023-03-22T00:08:37.649Z,11.10
2023-03-22T00:12:40.489Z,11.10
2023-03-22T00:16:43.363Z,11.10
2023-03-22T00:21:11.743Z,11.00
2023-03-22T00:25:14.518Z,11.20
2023-03-22T00:29:17.380Z,11.20
2023-03-22T00:33:20.328Z,11.10
2023-03-22T00:37:24.501Z,11.10
2023-03-22T00:41:27.402Z,11.10
2023-03-22T00:45:30.172Z,11.00
2023-03-22T00:49:33.090Z,11.00
2023-03-22T00:53:37.377Z,11.00
2023-03-22T00:57:40.566Z,11.00
2023-03-22T01:01:44.012Z,11.00
2023-03-22T01:05:47.197Z,11.00
2023-03-22T01:09:53.165Z,11.00
2023-03-22T01:13:55.998Z,11.00
2023-03-22T01:17:59.274Z,10.90
2023-03-22T01:22:02.764Z,10.90
2023-03-22T01:26:07.880Z,10.80
2023-03-22T01:30:11.604Z,10.80
2023-03-22T01:34:14.495Z,10.80
2023-03-22T01:38:17.538Z,10.80
2023-03-22T01:42:34.354Z,10.70
2023-03-22T01:46:39.805Z,10.60
2023-03-22T01:50:46.824Z,10.60
2023-03-22T01:54:53.727Z,10.60
2023-03-22T01:59:13.693Z,10.50
2023-03-22T02:03:44.456Z,10.40
2023-03-22T02:07:50.144Z,10.40
2023-03-22T02:12:04.900Z,10.20
2023-03-22T02:16:24.926Z,10.30
2023-03-22T02:21:05.644Z,10.20
2023-03-22T02:25:48.223Z,10.30
2023-03-22T02:30:01.241Z,10.20
2023-03-22T02:34:39.394Z,10.00
2023-03-22T02:39:21.356Z,9.90
2023-03-22T02:43:38.316Z,9.90
2023-03-22T02:47:44.772Z,9.80
2023-03-22T02:51:52.108Z,9.80
2023-03-22T02:56:01.631Z,9.60
2023-03-22T03:00:12.429Z,9.60
2023-03-22T03:04:18.905Z,9.60
2023-03-22T03:08:23.710Z,9.70
2023-03-22T03:12:28.259Z,9.60
2023-03-22T03:16:38.050Z,9.60
2023-03-22T03:20:52.483Z,9.60
2023-03-22T03:25:03.630Z,9.50
2023-03-22T03:29:12.871Z,9.50
2023-03-22T03:33:20.459Z,9.50
2023-03-22T03:37:28.696Z,9.40
2023-03-22T03:41:32.864Z,9.40
2023-03-22T03:45:37.257Z,9.30
2023-03-22T03:49:42.003Z,9.10
2023-03-22T03:53:44.871Z,9.00
2023-03-22T03:57:48.039Z,8.80
2023-03-22T04:01:52.385Z,8.70
2023-03-22T04:06:08.810Z,8.70
2023-03-22T04:10:14.345Z,8.70
2023-03-22T04:14:17.329Z,8.60
2023-03-22T04:18:24.219Z,8.70
2023-03-22T04:22:29.292Z,8.60
2023-03-22T04:26:32.864Z,8.60
2023-03-22T04:30:51.005Z,8.60
2023-03-22T04:35:20.455Z,8.40
2023-03-22T04:39:24.709Z,8.40
2023-03-22T04:43:35.837Z,8.40
2023-03-22T04:47:41.737Z,8.30
2023-03-22T04:51:44.956Z,8.30
2023-03-22T04:55:59.309Z,8.30
2023-03-22T05:00:06.888Z,8.30
2023-03-22T05:04:09.814Z,8.20
2023-03-22T05:08:14.367Z,8.20
2023-03-22T05:12:19.977Z,8.20
2023-03-22T05:16:26.614Z,8.20
2023-03-22T05:20:29.589Z,8.10
2023-03-22T05:24:52.395Z,8.10
2023-03-22T05:29:03.363Z,8.10
2023-03-22T05:33:21.785Z,8.10
2023-03-22T05:37:27.633Z,8.10
2023-03-22T05:41:36.241Z,8.10
2023-03-22T05:45:41.271Z,8.20
2023-03-22T05:50:00.046Z,8.20
2023-03-22T05:54:05.166Z,8.20
2023-03-22T05:58:18.947Z,8.20
2023-03-22T06:02:24.867Z,8.30
2023-03-22T06:06:28.517Z,8.30
2023-03-22T06:10:43.971Z,8.40
2023-03-22T06:14:46.956Z,8.60
2023-03-22T06:19:00.510Z,8.60
2023-03-22T06:23:03.631Z,8.60
2023-03-22T06:27:06.590Z,8.80
2023-03-22T06:31:11.178Z,9.00
2023-03-22T06:35:32.532Z,9.20
2023-03-22T06:39:36.011Z,9.40
2023-03-22T06:43:39.329Z,9.60
2023-03-22T06:47:55.769Z,9.80
2023-03-22T06:52:14.760Z,10.10
2023-03-22T06:56:17.766Z,11.30
2023-03-22T07:00:25.503Z,13.00
2023-03-22T07:04:29.145Z,14.10
2023-03-22T07:08:34.059Z,14.50
2023-03-22T07:12:37.445Z,15.00
2023-03-22T07:16:46.242Z,15.10
2023-03-22T07:20:49.107Z,15.70
2023-03-22T07:24:57.646Z,16.10
2023-03-22T07:29:03.541Z,17.00
2023-03-22T07:33:11.627Z,17.60
2023-03-22T07:37:16.277Z,18.60
2023-03-22T07:41:23.931Z,20.00
2023-03-22T07:45:31.364Z,21.80
2023-03-22T07:49:53.010Z,22.70
2023-03-22T07:54:01.850Z,22.70
2023-03-22T07:58:07.747Z,23.90
2023-03-22T08:02:10.836Z,24.50
2023-03-22T08:06:22.033Z,25.70
2023-03-22T08:10:25.218Z,25.40
2023-03-22T08:14:36.330Z,26.60
2023-03-22T08:18:44.263Z,26.00
2023-03-22T08:22:48.334Z,26.00
2023-03-22T08:26:57.605Z,26.90
2023-03-22T08:31:20.124Z,28.10
2023-03-22T08:35:23.717Z,30.20
2023-03-22T08:39:27.264Z,30.40
2023-03-22T08:43:43.850Z,30.00
2023-03-22T08:47:48.527Z,30.90
2023-03-22T08:51:54.149Z,30.70
2023-03-22T08:56:17.474Z,30.40
2023-03-22T09:00:45.939Z,31.10
2023-03-22T09:05:13.640Z,33.50
2023-03-22T09:09:17.975Z,33.50
2023-03-22T09:13:23.860Z,33.20
2023-03-22T09:17:31.783Z,32.70
2023-03-22T09:21:36.347Z,33.00
2023-03-22T09:25:47.128Z,32.80
2023-03-22T09:29:53.265Z,32.10
2023-03-22T09:33:56.221Z,32.40
2023-03-22T09:38:38.758Z,31.70
2023-03-22T09:42:46.116Z,30.60
2023-03-22T09:46:55.060Z,32.00
2023-03-22T09:50:57.880Z,34.40
2023-03-22T09:55:00.774Z,34.10
2023-03-22T09:59:12.875Z,36.40
2023-03-22T10:03:24.686Z,35.90
2023-03-22T10:07:30.219Z,36.30
2023-03-22T10:11:45.620Z,38.20
2023-03-22T10:15:52.372Z,37.30
2023-03-22T10:19:58.952Z,36.50
2023-03-22T10:24:06.177Z,36.80
2023-03-22T10:28:17.501Z,34.50
2023-03-22T10:32:28.367Z,34.70
2023-03-22T10:36:34.862Z,33.90
2023-03-22T10:40:40.829Z,34.80
2023-03-22T10:44:49.344Z,33.70
2023-03-22T10:48:59.011Z,35.00
2023-03-22T10:53:06.320Z,34.20
2023-03-22T10:57:09.149Z,33.80
2023-03-22T11:01:13.033Z,35.10
2023-03-22T11:05:25.824Z,35.60
2023-03-22T11:09:28.674Z,34.10
2023-03-22T11:13:35.308Z,32.80
2023-03-22T11:17:38.429Z,33.70
2023-03-22T11:21:43.373Z,34.90
2023-03-22T11:25:48.760Z,36.10
2023-03-22T11:29:53.332Z,36.60
2023-03-22T11:33:57.918Z,36.20
2023-03-22T11:38:02.646Z,36.50
2023-03-22T11:42:07.306Z,37.60
2023-03-22T11:46:12.248Z,38.20
2023-03-22T11:50:27.625Z,37.90
2023-03-22T11:54:36.590Z,38.80
2023-03-22T11:59:04.163Z,36.90
2023-03-22T12:03:13.818Z,37.50
2023-03-22T12:07:19.438Z,37.30
2023-03-22T12:11:28.432Z,36.20
2023-03-22T12:15:36.187Z,37.80
2023-03-22T12:19:56.348Z,37.40
2023-03-22T12:24:02.799Z,36.70
2023-03-22T12:28:10.778Z,36.70
2023-03-22T12:32:18.787Z,36.80
2023-03-22T12:36:24.661Z,35.60
2023-03-22T12:40:30.233Z,35.20
2023-03-22T12:44:39.198Z,34.20
2023-03-22T12:48:46.808Z,33.30
2023-03-22T12:52:51.346Z,33.00
2023-03-22T12:56:56.486Z,32.80
2023-03-22T13:01:13.521Z,33.40
2023-03-22T13:05:19.195Z,33.50
2023-03-22T13:09:37.042Z,34.10
2023-03-22T13:13:46.049Z,33.90
2023-03-22T13:17:50.418Z,32.70
2023-03-22T13:22:14.836Z,32.50
2023-03-22T13:26:19.978Z,31.90
2023-03-22T13:30:28.898Z,31.10
2023-03-22T13:34:38.713Z,31.10
2023-03-22T13:38:43.556Z,31.00
2023-03-22T13:42:46.503Z,30.90
2023-03-22T13:46:53.584Z,30.30
2023-03-22T13:50:59.116Z,29.70
2023-03-22T13:55:01.926Z,29.40
2023-03-22T13:59:05.297Z,29.30
2023-03-22T14:03:15.734Z,29.20
2023-03-22T14:07:25.384Z,29.40
2023-03-22T14:11:33.646Z,29.40
2023-03-22T14:15:41.389Z,29.50
2023-03-22T14:19:44.414Z,29.40
